createdAt,value
2022-10-13T00:00:16.499Z,0.00
2022-10-13T00:01:16.600Z,0.00
2022-10-13T00:02:16.896Z,0.00
2022-10-13T00:03:16.467Z,0.00
2022-10-13T00:04:16.437Z,0.00
2022-10-13T00:05:16.432Z,0.00
2022-10-13T00:06:16.417Z,0.00
2022-10-13T00:07:16.417Z,0.00
2022-10-13T00:08:16.431Z,0.00
2022-10-13T00:09:16.389Z,0.00
2022-10-13T00:10:16.378Z,0.00
2022-10-13T00:11:16.451Z,0.00
2022-10-13T00:12:16.802Z,0.00
2022-10-13T00:13:16.320Z,0.00
2022-10-13T00:14:16.328Z,0.00
2022-10-13T00:15:16.310Z,0.00
2022-10-13T00:16:16.315Z,0.00
2022-10-13T00:17:16.289Z,0.00
2022-10-13T00:18:16.287Z,0.00
2022-10-13T00:19:16.268Z,0.00
2022-10-13T00:20:16.249Z,0.00
2022-10-13T00:21:16.230Z,0.00
2022-10-13T00:22:16.503Z,0.00
2022-10-13T00:23:16.201Z,0.00
2022-10-13T00:24:16.180Z,0.00
2022-10-13T00:25:16.178Z,0.00
2022-10-13T00:26:16.157Z,0.00
2022-10-13T00:27:16.153Z,0.00
2022-10-13T00:28:16.170Z,0.00
2022-10-13T00:29:16.130Z,0.00
2022-10-13T00:30:16.171Z,0.00
2022-10-13T00:31:16.101Z,0.00
2022-10-13T00:32:16.421Z,0.00
2022-10-13T00:33:16.083Z,0.00
2022-10-13T00:34:16.058Z,0.00
2022-10-13T00:35:16.051Z,0.00
2022-10-13T00:36:16.061Z,0.00
2022-10-13T00:37:16.077Z,0.00
2022-10-13T00:38:15.998Z,0.00
2022-10-13T00:39:15.998Z,0.00
2022-10-13T00:40:15.979Z,0.00
2022-10-13T00:41:15.968Z,0.00
2022-10-13T00:42:16.269Z,0.00
2022-10-13T00:43:15.938Z,0.00
2022-10-13T00:44:15.979Z,0.00
2022-10-13T00:45:15.920Z,0.00
2022-10-13T00:46:16.068Z,0.00
2022-10-13T00:47:15.912Z,0.00
2022-10-13T00:48:15.903Z,0.00
2022-10-13T00:49:15.872Z,0.00
2022-10-13T00:50:15.864Z,0.00
2022-10-13T00:51:15.861Z,0.00
2022-10-13T00:52:16.030Z,0.00
2022-10-13T00:53:15.809Z,0.00
2022-10-13T00:54:15.788Z,0.00
2022-10-13T00:55:15.779Z,0.00
2022-10-13T00:56:15.767Z,0.00
2022-10-13T00:57:15.775Z,0.00
2022-10-13T00:58:15.749Z,0.00
2022-10-13T00:59:15.739Z,0.00
2022-10-13T01:00:15.729Z,0.00
2022-10-13T01:01:15.754Z,0.00
2022-10-13T01:02:15.906Z,0.00
2022-10-13T01:03:15.700Z,0.00
2022-10-13T01:04:15.671Z,0.00
2022-10-13T01:05:15.659Z,0.00
2022-10-13T01:06:18.725Z,0.00
2022-10-13T01:07:16.639Z,0.00
2022-10-13T01:08:15.658Z,0.00
2022-10-13T01:09:15.607Z,0.00
2022-10-13T01:10:15.600Z,0.00
2022-10-13T01:11:15.585Z,0.00
2022-10-13T01:12:15.717Z,0.00
2022-10-13T01:13:15.559Z,0.00
2022-10-13T01:14:15.587Z,0.00
2022-10-13T01:15:15.528Z,0.00
2022-10-13T01:16:15.508Z,0.00
2022-10-13T01:17:15.509Z,0.00
2022-10-13T01:18:15.489Z,0.00
2022-10-13T01:19:15.497Z,0.00
2022-10-13T01:20:15.475Z,0.00
2022-10-13T01:21:15.451Z,0.00
2022-10-13T01:22:15.669Z,0.00
2022-10-13T01:23:15.460Z,0.00
2022-10-13T01:24:15.430Z,0.00
2022-10-13T01:25:15.405Z,0.00
2022-10-13T01:26:15.390Z,0.00
2022-10-13T01:27:15.369Z,0.00
2022-10-13T01:28:15.372Z,0.00
2022-10-13T01:29:15.378Z,0.00
2022-10-13T01:30:15.349Z,0.00
2022-10-13T01:31:15.389Z,0.00
2022-10-13T01:32:15.325Z,0.00
2022-10-13T01:33:15.297Z,0.00
2022-10-13T01:34:15.289Z,0.00
2022-10-13T01:35:15.286Z,0.00
2022-10-13T01:36:15.256Z,0.00
2022-10-13T01:37:15.248Z,0.00
2022-10-13T01:38:15.227Z,0.00
2022-10-13T01:39:15.220Z,0.00
2022-10-13T01:40:15.262Z,0.00
2022-10-13T01:41:15.188Z,0.00
2022-10-13T01:42:22.221Z,0.00
2022-10-13T01:43:15.170Z,0.00
2022-10-13T01:44:15.159Z,0.00
2022-10-13T01:45:15.156Z,0.00
2022-10-13T01:46:15.161Z,0.00
2022-10-13T01:47:15.112Z,0.00
2022-10-13T01:48:15.114Z,0.00
2022-10-13T01:49:15.109Z,0.00
2022-10-13T01:50:15.079Z,0.00
2022-10-13T01:51:15.102Z,0.00
2022-10-13T01:52:15.129Z,0.00
2022-10-13T01:53:15.039Z,0.00
2022-10-13T01:54:15.050Z,0.00
2022-10-13T01:55:15.012Z,0.00
2022-10-13T01:56:15.008Z,0.00
2022-10-13T01:57:14.986Z,0.00
2022-10-13T01:58:14.968Z,0.00
2022-10-13T01:59:14.999Z,0.00
2022-10-13T02:00:14.960Z,0.00
2022-10-13T02:01:14.979Z,0.00
2022-10-13T02:02:14.935Z,0.00
2022-10-13T02:03:15.026Z,0.00
2022-10-13T02:04:14.887Z,0.00
2022-10-13T02:05:14.877Z,0.00
2022-10-13T02:06:14.908Z,0.00
2022-10-13T02:07:14.861Z,0.00
2022-10-13T02:08:14.860Z,0.00
2022-10-13T02:09:14.827Z,0.00
2022-10-13T02:10:14.819Z,0.00
2022-10-13T02:11:14.808Z,0.00
2022-10-13T02:12:14.860Z,0.00
2022-10-13T02:13:14.780Z,0.00
2022-10-13T02:14:14.776Z,0.00
2022-10-13T02:15:14.783Z,0.00
2022-10-13T02:16:14.739Z,0.00
2022-10-13T02:17:14.739Z,0.00
2022-10-13T02:18:14.748Z,0.00
2022-10-13T02:19:14.729Z,0.00
2022-10-13T02:20:14.688Z,0.00
2022-10-13T02:21:14.728Z,0.00
2022-10-13T02:22:14.654Z,0.00
2022-10-13T02:23:14.640Z,0.00
2022-10-13T02:24:14.678Z,0.00
2022-10-13T02:25:14.637Z,0.00
2022-10-13T02:26:14.654Z,0.00
2022-10-13T02:27:14.598Z,0.00
2022-10-13T02:28:14.634Z,0.00
2022-10-13T02:29:14.581Z,0.00
2022-10-13T02:30:14.609Z,0.00
2022-10-13T02:31:14.559Z,0.00
2022-10-13T02:32:14.530Z,0.00
2022-10-13T02:33:14.578Z,0.00
2022-10-13T02:34:14.519Z,0.00
2022-10-13T02:35:14.516Z,0.00
2022-10-13T02:36:14.527Z,0.00
2022-10-13T02:37:14.473Z,0.00
2022-10-13T02:38:14.487Z,0.00
2022-10-13T02:39:14.492Z,0.00
2022-10-13T02:40:14.447Z,0.00
2022-10-13T02:41:14.408Z,0.00
2022-10-13T02:42:14.395Z,0.00
2022-10-13T02:43:14.388Z,0.00
2022-10-13T02:44:14.370Z,0.00
2022-10-13T02:45:14.394Z,0.00
2022-10-13T02:46:14.395Z,0.00
2022-10-13T02:47:14.360Z,0.00
2022-10-13T02:48:14.347Z,0.00
2022-10-13T02:49:14.446Z,0.00
2022-10-13T02:50:14.315Z,0.00
2022-10-13T02:51:14.289Z,0.00
2022-10-13T02:52:14.290Z,0.00
2022-10-13T02:53:14.268Z,0.00
2022-10-13T02:54:14.269Z,0.00
2022-10-13T02:55:14.250Z,0.00
2022-10-13T02:56:14.252Z,0.00
2022-10-13T02:57:14.228Z,0.00
2022-10-13T02:58:14.248Z,0.00
2022-10-13T02:59:14.207Z,0.00
2022-10-13T03:00:14.224Z,0.00
2022-10-13T03:01:14.204Z,0.00
2022-10-13T03:02:14.157Z,0.00
2022-10-13T03:03:14.162Z,0.00
2022-10-13T03:04:14.149Z,0.00
2022-10-13T03:05:14.119Z,0.00
2022-10-13T03:06:14.126Z,0.00
2022-10-13T03:07:14.098Z,0.00
2022-10-13T03:08:14.079Z,0.00
2022-10-13T03:09:14.089Z,0.00
2022-10-13T03:10:14.068Z,0.00
2022-10-13T03:11:14.062Z,0.00
2022-10-13T03:12:14.022Z,0.00
2022-10-13T03:13:14.022Z,0.00
2022-10-13T03:14:14.018Z,0.00
2022-10-13T03:15:13.996Z,0.00
2022-10-13T03:16:13.972Z,0.00
2022-10-13T03:17:13.996Z,0.00
2022-10-13T03:18:13.942Z,0.00
2022-10-13T03:19:13.927Z,0.00
2022-10-13T03:20:13.908Z,0.00
2022-10-13T03:21:13.897Z,0.00
2022-10-13T03:22:13.895Z,0.00
2022-10-13T03:23:13.891Z,0.00
2022-10-13T03:24:13.868Z,0.00
2022-10-13T03:25:13.859Z,0.00
2022-10-13T03:26:13.849Z,0.00
2022-10-13T03:27:14.555Z,0.00
2022-10-13T03:28:13.886Z,0.00
2022-10-13T03:29:14.659Z,0.00
2022-10-13T03:30:13.798Z,0.00
2022-10-13T03:31:13.778Z,0.00
2022-10-13T03:32:13.756Z,0.00
2022-10-13T03:33:13.746Z,0.00
2022-10-13T03:34:13.787Z,0.00
2022-10-13T03:35:13.728Z,0.00
2022-10-13T03:36:13.707Z,0.00
2022-10-13T03:37:13.712Z,0.00
2022-10-13T03:38:13.679Z,0.00
2022-10-13T03:39:13.671Z,0.00
2022-10-13T03:40:13.686Z,0.00
2022-10-13T03:41:13.648Z,0.00
2022-10-13T03:42:13.649Z,0.00
2022-10-13T03:43:13.620Z,0.00
2022-10-13T03:44:13.650Z,0.00
2022-10-13T03:45:13.635Z,0.00
2022-10-13T03:46:13.605Z,0.00
2022-10-13T03:47:13.577Z,0.00
2022-10-13T03:48:13.575Z,0.00
2022-10-13T03:49:13.564Z,0.00
2022-10-13T03:50:13.538Z,0.00
2022-10-13T03:51:13.554Z,0.00
2022-10-13T03:52:13.531Z,0.00
2022-10-13T03:53:13.506Z,0.00
2022-10-13T03:54:13.500Z,0.00
2022-10-13T03:55:13.489Z,0.00
2022-10-13T03:56:13.471Z,0.00
2022-10-13T03:57:13.429Z,0.00
2022-10-13T03:58:13.432Z,0.00
2022-10-13T03:59:13.413Z,0.00
2022-10-13T04:00:13.406Z,0.00
2022-10-13T04:01:13.388Z,0.00
2022-10-13T04:02:13.379Z,0.00
2022-10-13T04:03:13.358Z,0.00
2022-10-13T04:04:13.366Z,0.00
2022-10-13T04:05:13.396Z,0.00
2022-10-13T04:06:13.355Z,0.00
2022-10-13T04:07:13.326Z,0.00
2022-10-13T04:08:13.306Z,0.00
2022-10-13T04:09:13.281Z,0.00
2022-10-13T04:10:13.295Z,0.00
2022-10-13T04:11:13.265Z,0.00
2022-10-13T04:12:17.099Z,0.00
2022-10-13T04:13:14.266Z,0.00
2022-10-13T04:14:13.227Z,0.00
2022-10-13T04:15:13.330Z,0.00
2022-10-13T04:16:13.197Z,0.00
2022-10-13T04:17:13.226Z,0.00
2022-10-13T04:18:13.190Z,0.00
2022-10-13T04:19:13.165Z,0.00
2022-10-13T04:20:13.165Z,0.00
2022-10-13T04:21:13.124Z,0.00
2022-10-13T04:22:13.151Z,0.00
2022-10-13T04:23:13.095Z,0.00
2022-10-13T04:24:13.114Z,0.00
2022-10-13T04:25:13.076Z,0.00
2022-10-13T04:26:13.161Z,0.00
2022-10-13T04:27:13.091Z,0.00
2022-10-13T04:28:13.097Z,0.00
2022-10-13T04:29:13.026Z,0.00
2022-10-13T04:30:13.658Z,0.00
2022-10-13T04:31:13.066Z,0.00
2022-10-13T04:32:13.033Z,0.00
2022-10-13T04:33:13.025Z,0.00
2022-10-13T04:34:12.980Z,0.00
2022-10-13T04:35:12.968Z,0.00
2022-10-13T04:36:12.939Z,0.00
2022-10-13T04:37:12.924Z,0.00
2022-10-13T04:38:12.918Z,0.00
2022-10-13T04:39:12.911Z,0.00
2022-10-13T04:40:12.911Z,0.00
2022-10-13T04:41:12.871Z,0.00
2022-10-13T04:42:12.885Z,0.00
2022-10-13T04:43:12.856Z,0.00
2022-10-13T04:44:12.840Z,0.00
2022-10-13T04:45:12.839Z,0.00
2022-10-13T04:46:12.814Z,0.00
2022-10-13T04:47:12.860Z,0.00
2022-10-13T04:48:12.818Z,0.00
2022-10-13T04:49:12.774Z,0.00
2022-10-13T04:50:12.751Z,0.00
2022-10-13T04:51:12.804Z,0.00
2022-10-13T04:52:12.736Z,0.00
2022-10-13T04:53:16.759Z,0.00
2022-10-13T04:54:13.729Z,0.00
2022-10-13T04:55:12.724Z,4.00
2022-10-13T04:56:12.695Z,0.00
2022-10-13T04:57:12.671Z,0.00
2022-10-13T04:58:12.658Z,4.00
2022-10-13T04:59:12.678Z,0.00
2022-10-13T05:00:12.646Z,4.00
2022-10-13T05:01:14.547Z,0.00
2022-10-13T05:02:13.608Z,4.00
2022-10-13T05:03:12.595Z,4.00
2022-10-13T05:04:12.606Z,4.00
2022-10-13T05:05:12.590Z,4.00
2022-10-13T05:06:12.554Z,4.00
2022-10-13T05:07:17.933Z,8.00
2022-10-13T05:08:13.571Z,12.00
2022-10-13T05:09:12.566Z,8.00
2022-10-13T05:10:12.509Z,12.00
2022-10-13T05:11:12.508Z,12.00
2022-10-13T05:12:12.477Z,16.00
2022-10-13T05:13:12.599Z,20.00
2022-10-13T05:14:12.474Z,20.00
2022-10-13T05:15:12.457Z,24.00
2022-10-13T05:16:12.417Z,28.00
2022-10-13T05:17:12.408Z,32.00
2022-10-13T05:18:12.423Z,36.00
2022-10-13T05:19:12.367Z,36.00
2022-10-13T05:20:12.385Z,44.00
2022-10-13T05:21:12.373Z,48.00
2022-10-13T05:22:12.373Z,56.00
2022-10-13T05:23:12.336Z,64.00
2022-10-13T05:24:12.356Z,72.00
2022-10-13T05:25:12.347Z,76.00
2022-10-13T05:26:12.336Z,84.00
2022-10-13T05:27:12.304Z,96.00
2022-10-13T05:28:12.342Z,108.00
2022-10-13T05:29:12.279Z,120.00
2022-10-13T05:30:12.262Z,128.00
2022-10-13T05:31:12.237Z,144.00
2022-10-13T05:32:12.234Z,156.00
2022-10-13T05:33:12.224Z,168.00
2022-10-13T05:34:12.204Z,184.00
2022-10-13T05:35:12.183Z,200.00
2022-10-13T05:36:12.195Z,220.00
2022-10-13T05:37:12.145Z,236.00
2022-10-13T05:38:12.149Z,252.00
2022-10-13T05:39:12.148Z,268.00
2022-10-13T05:40:12.137Z,284.00
2022-10-13T05:41:12.137Z,304.00
2022-10-13T05:42:12.089Z,328.00
2022-10-13T05:43:12.065Z,352.00
2022-10-13T05:44:12.075Z,380.00
2022-10-13T05:45:12.064Z,404.00
2022-10-13T05:46:12.056Z,428.00
2022-10-13T05:47:12.026Z,456.00
2022-10-13T05:48:12.056Z,488.00
2022-10-13T05:49:12.019Z,516.00
2022-10-13T05:50:11.997Z,548.00
2022-10-13T05:51:11.980Z,576.00
2022-10-13T05:52:11.997Z,604.00
2022-10-13T05:53:11.986Z,636.00
2022-10-13T05:54:11.978Z,664.00
2022-10-13T05:55:11.954Z,688.00
2022-10-13T05:56:11.921Z,720.00
2022-10-13T05:57:11.884Z,748.00
2022-10-13T05:58:11.918Z,776.00
2022-10-13T05:59:11.855Z,804.00
2022-10-13T06:00:11.954Z,828.00
2022-10-13T06:01:11.897Z,852.00
2022-10-13T06:02:11.906Z,872.00
2022-10-13T06:03:11.821Z,896.00
2022-10-13T06:04:11.811Z,920.00
2022-10-13T06:05:11.819Z,940.00
2022-10-13T06:06:11.781Z,960.00
2022-10-13T06:07:13.107Z,984.00
2022-10-13T06:08:11.776Z,1008.00
2022-10-13T06:09:11.736Z,1028.00
2022-10-13T06:10:11.745Z,1048.00
2022-10-13T06:11:11.724Z,1064.00
2022-10-13T06:12:11.699Z,1064.00
2022-10-13T06:13:11.733Z,1072.00
2022-10-13T06:14:11.669Z,1096.00
2022-10-13T06:15:11.668Z,1128.00
2022-10-13T06:16:11.674Z,1160.00
2022-10-13T06:17:11.656Z,1196.00
2022-10-13T06:18:11.636Z,1232.00
2022-10-13T06:19:11.619Z,1268.00
2022-10-13T06:20:11.604Z,1300.00
2022-10-13T06:21:11.634Z,1332.00
2022-10-13T06:22:11.603Z,1364.00
2022-10-13T06:23:11.566Z,1400.00
2022-10-13T06:24:11.548Z,1432.00
2022-10-13T06:25:11.527Z,1460.00
2022-10-13T06:26:11.538Z,1488.00
2022-10-13T06:27:11.529Z,1512.00
2022-10-13T06:28:11.640Z,1540.00
2022-10-13T06:29:11.524Z,1568.00
2022-10-13T06:30:11.477Z,1600.00
2022-10-13T06:31:11.466Z,1632.00
2022-10-13T06:32:11.435Z,1664.00
2022-10-13T06:33:11.445Z,1692.00
2022-10-13T06:34:11.434Z,1716.00
2022-10-13T06:35:11.421Z,1732.00
2022-10-13T06:36:11.388Z,1744.00
2022-10-13T06:37:11.387Z,1760.00
2022-10-13T06:38:11.374Z,1772.00
2022-10-13T06:39:11.357Z,1788.00
2022-10-13T06:40:11.347Z,1804.00
2022-10-13T06:41:11.367Z,1824.00
2022-10-13T06:42:11.327Z,1864.00
2022-10-13T06:43:11.296Z,1908.00
2022-10-13T06:44:11.288Z,1964.00
2022-10-13T06:45:11.343Z,2008.00
2022-10-13T06:46:11.278Z,2052.00
2022-10-13T06:47:11.245Z,2076.00
2022-10-13T06:48:11.238Z,2112.00
2022-10-13T06:49:11.229Z,2148.00
2022-10-13T06:50:11.216Z,2180.00
2022-10-13T06:51:11.184Z,2212.00
2022-10-13T06:52:11.172Z,2240.00
2022-10-13T06:53:11.167Z,2268.00
2022-10-13T06:54:11.156Z,2284.00
2022-10-13T06:55:11.140Z,2296.00
2022-10-13T06:56:11.180Z,2296.00
2022-10-13T06:57:11.104Z,2308.00
2022-10-13T06:58:11.114Z,2316.00
2022-10-13T06:59:11.098Z,2316.00
2022-10-13T07:00:11.079Z,2312.00
2022-10-13T07:01:11.096Z,2288.00
2022-10-13T07:02:11.066Z,2260.00
2022-10-13T07:03:11.036Z,2224.00
2022-10-13T07:04:11.019Z,2188.00
2022-10-13T07:05:11.037Z,2152.00
2022-10-13T07:06:11.013Z,2120.00
2022-10-13T07:07:10.996Z,2092.00
2022-10-13T07:08:10.976Z,2072.00
2022-10-13T07:09:10.958Z,2052.00
2022-10-13T07:10:10.978Z,2040.00
2022-10-13T07:11:15.561Z,2044.00
2022-10-13T07:12:11.935Z,2072.00
2022-10-13T07:13:10.980Z,2128.00
2022-10-13T07:14:10.886Z,2200.00
2022-10-13T07:15:10.878Z,2284.00
2022-10-13T07:16:10.909Z,2384.00
2022-10-13T07:17:10.872Z,2528.00
2022-10-13T07:18:10.894Z,2676.00
2022-10-13T07:19:10.866Z,2820.00
2022-10-13T07:20:10.827Z,2864.00
2022-10-13T07:21:10.849Z,2816.00
2022-10-13T07:22:10.852Z,2796.00
2022-10-13T07:23:10.808Z,2884.00
2022-10-13T07:24:10.774Z,3112.00
2022-10-13T07:25:10.763Z,2928.00
2022-10-13T07:26:10.747Z,3008.00
2022-10-13T07:27:10.728Z,3124.00
2022-10-13T07:28:10.714Z,3152.00
2022-10-13T07:29:10.706Z,3588.00
2022-10-13T07:30:10.680Z,3740.00
2022-10-13T07:31:10.687Z,3284.00
2022-10-13T07:32:10.677Z,3332.00
2022-10-13T07:33:10.646Z,3420.00
2022-10-13T07:34:10.630Z,3776.00
2022-10-13T07:35:10.616Z,3992.00
2022-10-13T07:36:10.617Z,3956.00
2022-10-13T07:37:10.588Z,4348.00
2022-10-13T07:38:10.567Z,4340.00
2022-10-13T07:39:10.564Z,4408.00
2022-10-13T07:40:10.556Z,4396.00
2022-10-13T07:41:10.555Z,4616.00
2022-10-13T07:42:18.341Z,4592.00
2022-10-13T07:43:10.522Z,4536.00
2022-10-13T07:44:10.492Z,4204.00
2022-10-13T07:45:10.477Z,4364.00
2022-10-13T07:46:10.491Z,4424.00
2022-10-13T07:47:10.464Z,4396.00
2022-10-13T07:48:10.497Z,4344.00
2022-10-13T07:49:12.480Z,4324.00
2022-10-13T07:50:11.454Z,4324.00
2022-10-13T07:51:10.411Z,4032.00
2022-10-13T07:52:10.433Z,4420.00
2022-10-13T07:53:10.372Z,4504.00
2022-10-13T07:54:10.383Z,4520.00
2022-10-13T07:55:10.344Z,4500.00
2022-10-13T07:56:10.414Z,4400.00
2022-10-13T07:57:10.314Z,4500.00
2022-10-13T07:58:10.414Z,4416.00
2022-10-13T07:59:10.294Z,4340.00
2022-10-13T08:00:10.274Z,4304.00
2022-10-13T08:01:10.322Z,4268.00
2022-10-13T08:02:10.265Z,4248.00
2022-10-13T08:03:10.232Z,4200.00
2022-10-13T08:04:10.236Z,4148.00
2022-10-13T08:05:10.215Z,3712.00
2022-10-13T08:06:10.206Z,3692.00
2022-10-13T08:07:10.229Z,3780.00
2022-10-13T08:08:10.177Z,3992.00
2022-10-13T08:09:10.166Z,4456.00
2022-10-13T08:10:10.155Z,4688.00
2022-10-13T08:11:11.444Z,4640.00
2022-10-13T08:12:10.124Z,4516.00
2022-10-13T08:13:10.126Z,4740.00
2022-10-13T08:14:10.105Z,4740.00
2022-10-13T08:15:10.164Z,4764.00
2022-10-13T08:16:10.066Z,4764.00
2022-10-13T08:17:10.073Z,4804.00
2022-10-13T08:18:10.033Z,4820.00
2022-10-13T08:19:10.053Z,4836.00
2022-10-13T08:20:10.005Z,4880.00
2022-10-13T08:21:39.049Z,4928.00
2022-10-13T08:22:11.003Z,4984.00
2022-10-13T08:23:09.972Z,5036.00
2022-10-13T08:24:09.984Z,5104.00
2022-10-13T08:25:09.955Z,5156.00
2022-10-13T08:26:10.006Z,5224.00
2022-10-13T08:27:09.933Z,5284.00
2022-10-13T08:28:09.926Z,5336.00
2022-10-13T08:29:21.257Z,5412.00
2022-10-13T08:30:10.949Z,5480.00
2022-10-13T08:31:10.017Z,5552.00
2022-10-13T08:32:09.866Z,5632.00
2022-10-13T08:33:09.866Z,5716.00
2022-10-13T08:34:09.824Z,5796.00
2022-10-13T08:35:09.813Z,5876.00
2022-10-13T08:36:09.805Z,5948.00
2022-10-13T08:37:09.794Z,6024.00
2022-10-13T08:38:09.775Z,6080.00
2022-10-13T08:39:09.778Z,5808.00
2022-10-13T08:40:09.744Z,6200.00
2022-10-13T08:41:09.807Z,6208.00
2022-10-13T08:42:09.775Z,6180.00
2022-10-13T08:43:09.798Z,6092.00
2022-10-13T08:45:36.151Z,5780.00
2022-10-13T08:46:10.733Z,5332.00
2022-10-13T08:47:09.687Z,5536.00
2022-10-13T08:48:09.657Z,5028.00
2022-10-13T08:49:09.632Z,4816.00
2022-10-13T08:50:09.654Z,4716.00
2022-10-13T08:51:09.613Z,4788.00
2022-10-13T08:52:09.602Z,4820.00
2022-10-13T08:53:09.595Z,4860.00
2022-10-13T08:54:09.565Z,4884.00
2022-10-13T08:55:09.567Z,4888.00
2022-10-13T08:56:09.538Z,4932.00
2022-10-13T08:57:09.526Z,5284.00
2022-10-13T08:58:09.514Z,4944.00
2022-10-13T08:59:09.514Z,4924.00
2022-10-13T09:00:09.487Z,4936.00
2022-10-13T09:01:09.486Z,4928.00
2022-10-13T09:02:09.533Z,5048.00
2022-10-13T09:03:09.467Z,5104.00
2022-10-13T09:04:09.426Z,5088.00
2022-10-13T09:05:09.478Z,5032.00
2022-10-13T09:06:09.418Z,5032.00
2022-10-13T09:07:09.409Z,5036.00
2022-10-13T09:08:09.379Z,5056.00
2022-10-13T09:09:09.451Z,5020.00
2022-10-13T09:10:09.359Z,4992.00
2022-10-13T09:11:09.378Z,4916.00
2022-10-13T09:12:09.329Z,4908.00
2022-10-13T09:13:09.326Z,4896.00
2022-10-13T09:14:09.309Z,4884.00
2022-10-13T09:15:09.327Z,4868.00
2022-10-13T09:16:09.275Z,4848.00
2022-10-13T09:17:09.273Z,4832.00
2022-10-13T09:18:09.256Z,4840.00
2022-10-13T09:19:09.244Z,4864.00
2022-10-13T09:20:09.240Z,4936.00
2022-10-13T09:21:09.247Z,5020.00
2022-10-13T09:22:09.199Z,5156.00
2022-10-13T09:23:09.189Z,5312.00
2022-10-13T09:24:09.176Z,5580.00
2022-10-13T09:25:09.191Z,5660.00
2022-10-13T09:26:09.149Z,5720.00
2022-10-13T09:27:09.155Z,5812.00
2022-10-13T09:28:09.129Z,5864.00
2022-10-13T09:29:09.100Z,5892.00
2022-10-13T09:30:09.099Z,5908.00
2022-10-13T09:31:11.771Z,5920.00
2022-10-13T09:32:09.060Z,5936.00
2022-10-13T09:33:09.101Z,5948.00
2022-10-13T09:34:09.029Z,5936.00
2022-10-13T09:35:09.040Z,5932.00
2022-10-13T09:36:09.019Z,5932.00
2022-10-13T09:37:09.044Z,5908.00
2022-10-13T09:38:08.990Z,5920.00
2022-10-13T09:39:09.030Z,5872.00
2022-10-13T09:40:08.968Z,5904.00
2022-10-13T09:41:09.026Z,5912.00
2022-10-13T09:42:08.938Z,5840.00
2022-10-13T09:43:08.934Z,5872.00
2022-10-13T09:44:08.921Z,5836.00
2022-10-13T09:45:08.907Z,5844.00
2022-10-13T09:46:08.889Z,5852.00
2022-10-13T09:47:08.867Z,5860.00
2022-10-13T09:48:08.850Z,5872.00
2022-10-13T09:49:08.844Z,5888.00
2022-10-13T09:50:08.828Z,5896.00
2022-10-13T09:51:08.822Z,5900.00
2022-10-13T09:52:08.810Z,5904.00
2022-10-13T09:53:08.802Z,5924.00
2022-10-13T09:54:08.788Z,5940.00
2022-10-13T09:55:08.771Z,5964.00
2022-10-13T09:56:08.773Z,5984.00
2022-10-13T09:57:08.750Z,5992.00
2022-10-13T09:58:08.722Z,6016.00
2022-10-13T09:59:08.710Z,6032.00
2022-10-13T10:00:08.705Z,6044.00
2022-10-13T10:01:08.705Z,6048.00
2022-10-13T10:02:08.682Z,6052.00
2022-10-13T10:03:08.684Z,6052.00
2022-10-13T10:04:08.703Z,6060.00
2022-10-13T10:05:08.733Z,6064.00
2022-10-13T10:07:08.662Z,6084.00
2022-10-13T10:08:08.603Z,6108.00
2022-10-13T10:09:08.590Z,6156.00
2022-10-13T10:10:08.563Z,6192.00
2022-10-13T10:11:08.562Z,6236.00
2022-10-13T10:12:08.543Z,6284.00
2022-10-13T10:13:08.523Z,6328.00
2022-10-13T10:14:08.522Z,6376.00
2022-10-13T10:15:08.500Z,6412.00
2022-10-13T10:16:08.485Z,6444.00
2022-10-13T10:17:08.495Z,6480.00
2022-10-13T10:18:08.495Z,6508.00
2022-10-13T10:19:08.476Z,6532.00
2022-10-13T10:20:08.448Z,6544.00
2022-10-13T10:21:08.459Z,6552.00
2022-10-13T10:22:08.478Z,6564.00
2022-10-13T10:23:08.415Z,6568.00
2022-10-13T10:24:08.425Z,6564.00
2022-10-13T10:25:08.365Z,6564.00
2022-10-13T10:26:08.350Z,6548.00
2022-10-13T10:27:08.386Z,6520.00
2022-10-13T10:28:08.324Z,6484.00
2022-10-13T10:29:08.335Z,6444.00
2022-10-13T10:30:08.353Z,6408.00
2022-10-13T10:31:08.311Z,6348.00
2022-10-13T10:32:08.325Z,6296.00
2022-10-13T10:33:08.270Z,6236.00
2022-10-13T10:34:08.254Z,6168.00
2022-10-13T10:35:08.245Z,6100.00
2022-10-13T10:36:08.236Z,6052.00
2022-10-13T10:37:08.217Z,6008.00
2022-10-13T10:38:08.205Z,5988.00
2022-10-13T10:39:08.267Z,5944.00
2022-10-13T10:40:08.177Z,5900.00
2022-10-13T10:41:08.197Z,5828.00
2022-10-13T10:42:08.157Z,5760.00
2022-10-13T10:43:08.136Z,5704.00
2022-10-13T10:44:08.145Z,5644.00
2022-10-13T10:45:08.114Z,5572.00
2022-10-13T10:46:08.106Z,5488.00
2022-10-13T10:47:08.098Z,5432.00
2022-10-13T10:48:08.089Z,5384.00
2022-10-13T10:49:08.067Z,5352.00
2022-10-13T10:50:08.067Z,5324.00
2022-10-13T10:51:08.059Z,5288.00
2022-10-13T10:52:08.098Z,5244.00
2022-10-13T10:53:08.019Z,5212.00
2022-10-13T10:54:07.999Z,5168.00
2022-10-13T10:55:07.989Z,5116.00
2022-10-13T10:56:07.980Z,5076.00
2022-10-13T10:57:07.988Z,5036.00
2022-10-13T10:58:07.945Z,5024.00
2022-10-13T10:59:07.940Z,5024.00
2022-10-13T11:00:07.918Z,5044.00
2022-10-13T11:01:08.198Z,5064.00
2022-10-13T11:02:07.909Z,5276.00
2022-10-13T11:03:07.890Z,5536.00
2022-10-13T11:04:07.878Z,5336.00
2022-10-13T11:05:07.848Z,5568.00
2022-10-13T11:06:07.839Z,5392.00
2022-10-13T11:07:07.868Z,5588.00
2022-10-13T11:08:07.850Z,5784.00
2022-10-13T11:09:07.827Z,6292.00
2022-10-13T11:10:07.809Z,6024.00
2022-10-13T11:11:07.801Z,6388.00
2022-10-13T11:12:07.760Z,5308.00
2022-10-13T11:13:07.774Z,5276.00
2022-10-13T11:14:07.757Z,5204.00
2022-10-13T11:15:07.751Z,5424.00
2022-10-13T11:16:07.723Z,5244.00
2022-10-13T11:17:07.721Z,5340.00
2022-10-13T11:18:07.843Z,5456.00
2022-10-13T11:19:07.711Z,5496.00
2022-10-13T11:20:07.774Z,5512.00
2022-10-13T11:21:07.662Z,5608.00
2022-10-13T11:22:07.631Z,5708.00
2022-10-13T11:23:07.621Z,5800.00
2022-10-13T11:24:07.610Z,5888.00
2022-10-13T11:25:07.622Z,5976.00
2022-10-13T11:26:07.581Z,6084.00
2022-10-13T11:27:07.570Z,6172.00
2022-10-13T11:28:07.540Z,6256.00
2022-10-13T11:29:07.554Z,6356.00
2022-10-13T11:30:07.546Z,6476.00
2022-10-13T11:31:07.543Z,6560.00
2022-10-13T11:32:07.535Z,6656.00
2022-10-13T11:33:07.483Z,6752.00
2022-10-13T11:34:07.500Z,6824.00
2022-10-13T11:35:07.513Z,7232.00
2022-10-13T11:36:07.443Z,7036.00
2022-10-13T11:37:07.539Z,6992.00
2022-10-13T11:38:08.706Z,7020.00
2022-10-13T11:39:07.402Z,7816.00
2022-10-13T11:40:07.518Z,7860.00
2022-10-13T11:41:07.390Z,7204.00
2022-10-13T11:42:07.363Z,7332.00
2022-10-13T11:43:08.410Z,7568.00
2022-10-13T11:44:07.351Z,7352.00
2022-10-13T11:45:07.344Z,7064.00
2022-10-13T11:46:07.387Z,6964.00
2022-10-13T11:47:07.303Z,6920.00
2022-10-13T11:48:07.306Z,7080.00
2022-10-13T11:49:07.274Z,7252.00
2022-10-13T11:50:07.339Z,7388.00
2022-10-13T11:51:07.287Z,7332.00
2022-10-13T11:52:07.234Z,7016.00
2022-10-13T11:53:07.223Z,6880.00
2022-10-13T11:54:07.205Z,6832.00
2022-10-13T11:55:07.195Z,6952.00
2022-10-13T11:56:07.183Z,7272.00
2022-10-13T11:57:07.176Z,7468.00
2022-10-13T11:58:07.157Z,7416.00
2022-10-13T11:59:07.150Z,7444.00
2022-10-13T12:00:07.180Z,7360.00
2022-10-13T12:01:07.165Z,7504.00
2022-10-13T12:02:07.096Z,7492.00
2022-10-13T12:03:07.277Z,7716.00
2022-10-13T12:04:07.077Z,7716.00
2022-10-13T12:05:07.127Z,7596.00
2022-10-13T12:06:07.067Z,7412.00
2022-10-13T12:07:07.066Z,7380.00
2022-10-13T12:08:07.028Z,7528.00
2022-10-13T12:09:07.090Z,7648.00
2022-10-13T12:10:07.049Z,8004.00
2022-10-13T12:11:06.997Z,7988.00
2022-10-13T12:12:06.988Z,7592.00
2022-10-13T12:13:06.967Z,7640.00
2022-10-13T12:14:06.952Z,7584.00
2022-10-13T12:15:07.242Z,7664.00
2022-10-13T12:16:06.917Z,7712.00
2022-10-13T12:17:06.918Z,7888.00
2022-10-13T12:18:06.911Z,8168.00
2022-10-13T12:19:06.889Z,8428.00
2022-10-13T12:20:06.928Z,8548.00
2022-10-13T12:21:06.870Z,8404.00
2022-10-13T12:22:06.850Z,8156.00
2022-10-13T12:23:06.840Z,7880.00
2022-10-13T12:24:06.832Z,7704.00
2022-10-13T12:25:06.788Z,7748.00
2022-10-13T12:26:06.890Z,7744.00
2022-10-13T12:27:06.769Z,7676.00
2022-10-13T12:28:07.009Z,7464.00
2022-10-13T12:29:06.750Z,7232.00
2022-10-13T12:30:06.749Z,7060.00
2022-10-13T12:31:06.769Z,6792.00
2022-10-13T12:32:06.689Z,6540.00
2022-10-13T12:33:06.733Z,6372.00
2022-10-13T12:34:06.700Z,6308.00
2022-10-13T12:35:06.671Z,6220.00
2022-10-13T12:36:06.652Z,6128.00
2022-10-13T12:37:06.640Z,6024.00
2022-10-13T12:38:06.687Z,5900.00